sensor_id;sensor_type;location;lat;lon;timestamp;P1;durP1;ratioP1;P2;durP2;ratioP2
7231;SDS011;3657;49.630;11.018;2022-09-12T00:02:14;6.70;;;6.50;;
7231;SDS011;3657;49.630;11.018;2022-09-12T00:04:40;6.33;;;6.13;;
7231;SDS011;3657;49.630;11.018;2022-09-12T00:07:07;6.60;;;6.40;;
7231;SDS011;3657;49.630;11.018;2022-09-12T00:09:35;6.83;;;6.63;;
7231;SDS011;3657;49.630;11.018;2022-09-12T00:12:02;6.80;;;6.60;;
7231;SDS011;3657;49.630;11.018;2022-09-12T00:14:29;6.67;;;6.47;;
7231;SDS011;3657;49.630;11.018;2022-09-12T00:16:56;6.60;;;6.40;;
7231;SDS011;3657;49.630;11.018;2022-09-12T00:19:23;6.47;;;6.27;;
7231;SDS011;3657;49.630;11.018;2022-09-12T00:21:50;6.17;;;5.97;;
7231;SDS011;3657;49.630;11.018;2022-09-12T00:24:16;5.83;;;5.73;;
7231;SDS011;3657;49.630;11.018;2022-09-12T00:26:44;6.13;;;6.00;;
7231;SDS011;3657;49.630;11.018;2022-09-12T00:29:13;6.33;;;6.13;;
7231;SDS011;3657;49.630;11.018;2022-09-12T00:31:41;6.10;;;5.93;;
7231;SDS011;3657;49.630;11.018;2022-09-12T00:34:08;5.40;;;5.30;;
7231;SDS011;3657;49.630;11.018;2022-09-12T00:36:35;5.47;;;5.37;;
7231;SDS011;3657;49.630;11.018;2022-09-12T00:39:02;5.33;;;5.23;;
7231;SDS011;3657;49.630;11.018;2022-09-12T00:41:30;5.60;;;5.50;;
7231;SDS011;3657;49.630;11.018;2022-09-12T00:43:59;5.33;;;5.23;;
7231;SDS011;3657;49.630;11.018;2022-09-12T00:46:30;5.13;;;5.03;;
7231;SDS011;3657;49.630;11.018;2022-09-12T00:49:02;5.57;;;5.47;;
7231;SDS011;3657;49.630;11.018;2022-09-12T00:51:32;5.53;;;5.43;;
7231;SDS011;3657;49.630;11.018;2022-09-12T00:54:02;5.10;;;5.00;;
7231;SDS011;3657;49.630;11.018;2022-09-12T00:56:33;5.03;;;4.93;;
7231;SDS011;3657;49.630;11.018;2022-09-12T00:59:03;4.90;;;4.80;;
7231;SDS011;3657;49.630;11.018;2022-09-12T01:01:33;4.90;;;4.80;;
7231;SDS011;3657;49.630;11.018;2022-09-12T01:04:00;5.17;;;5.07;;
7231;SDS011;3657;49.630;11.018;2022-09-12T01:06:29;4.87;;;4.77;;
7231;SDS011;3657;49.630;11.018;2022-09-12T01:09:00;4.63;;;4.53;;
7231;SDS011;3657;49.630;11.018;2022-09-12T01:11:29;4.60;;;4.50;;
7231;SDS011;3657;49.630;11.018;2022-09-12T01:13:56;4.83;;;4.73;;
7231;SDS011;3657;49.630;11.018;2022-09-12T01:16:25;5.40;;;5.30;;
7231;SDS011;3657;49.630;11.018;2022-09-12T01:18:58;5.13;;;4.97;;
7231;SDS011;3657;49.630;11.018;2022-09-12T01:21:40;4.80;;;4.70;;
7231;SDS011;3657;49.630;11.018;2022-09-12T01:33:00;4.90;;;4.80;;
7231;SDS011;3657;49.630;11.018;2022-09-12T01:35:40;5.37;;;5.27;;
7231;SDS011;3657;49.630;11.018;2022-09-12T01:38:18;4.90;;;4.80;;
7231;SDS011;3657;49.630;11.018;2022-09-12T01:40:51;4.63;;;4.53;;
7231;SDS011;3657;49.630;11.018;2022-09-12T01:43:25;4.80;;;4.70;;
7231;SDS011;3657;49.630;11.018;2022-09-12T01:46:02;4.70;;;4.60;;
7231;SDS011;3657;49.630;11.018;2022-09-12T01:48:34;4.30;;;4.20;;
7231;SDS011;3657;49.630;11.018;2022-09-12T01:51:05;4.03;;;3.93;;
7231;SDS011;3657;49.630;11.018;2022-09-12T01:53:38;4.60;;;4.50;;
7231;SDS011;3657;49.630;11.018;2022-09-12T01:56:10;4.67;;;4.57;;
7231;SDS011;3657;49.630;11.018;2022-09-12T01:58:44;4.70;;;4.60;;
7231;SDS011;3657;49.630;11.018;2022-09-12T02:01:18;5.10;;;5.00;;
7231;SDS011;3657;49.630;11.018;2022-09-12T02:03:48;4.97;;;4.67;;
7231;SDS011;3657;49.630;11.018;2022-09-12T02:06:21;4.20;;;4.10;;
7231;SDS011;3657;49.630;11.018;2022-09-12T02:08:52;5.03;;;4.93;;
7231;SDS011;3657;49.630;11.018;2022-09-12T02:11:20;4.50;;;4.40;;
7231;SDS011;3657;49.630;11.018;2022-09-12T02:13:48;4.60;;;4.50;;
7231;SDS011;3657;49.630;11.018;2022-09-12T02:16:21;5.03;;;4.83;;
7231;SDS011;3657;49.630;11.018;2022-09-12T02:18:51;4.17;;;4.07;;
7231;SDS011;3657;49.630;11.018;2022-09-12T02:21:21;4.33;;;4.23;;
7231;SDS011;3657;49.630;11.018;2022-09-12T02:23:52;4.47;;;4.37;;
7231;SDS011;3657;49.630;11.018;2022-09-12T02:26:22;4.10;;;4.00;;
7231;SDS011;3657;49.630;11.018;2022-09-12T02:28:55;4.13;;;4.03;;
7231;SDS011;3657;49.630;11.018;2022-09-12T02:31:24;4.83;;;4.67;;
7231;SDS011;3657;49.630;11.018;2022-09-12T02:33:59;4.40;;;4.30;;
7231;SDS011;3657;49.630;11.018;2022-09-12T02:36:37;4.10;;;4.00;;
7231;SDS011;3657;49.630;11.018;2022-09-12T02:39:14;4.37;;;4.27;;
7231;SDS011;3657;49.630;11.018;2022-09-12T02:41:44;4.27;;;4.17;;
7231;SDS011;3657;49.630;11.018;2022-09-12T02:44:11;4.53;;;4.43;;
7231;SDS011;3657;49.630;11.018;2022-09-12T02:46:39;4.37;;;4.27;;
7231;SDS011;3657;49.630;11.018;2022-09-12T02:49:09;4.23;;;4.13;;
7231;SDS011;3657;49.630;11.018;2022-09-12T02:51:36;4.20;;;4.10;;
7231;SDS011;3657;49.630;11.018;2022-09-12T02:54:03;4.30;;;4.20;;
7231;SDS011;3657;49.630;11.018;2022-09-12T02:56:31;4.03;;;3.93;;
7231;SDS011;3657;49.630;11.018;2022-09-12T02:58:59;4.40;;;4.30;;
7231;SDS011;3657;49.630;11.018;2022-09-12T03:01:33;4.23;;;4.13;;
7231;SDS011;3657;49.630;11.018;2022-09-12T03:04:18;4.60;;;4.50;;
7231;SDS011;3657;49.630;11.018;2022-09-12T03:07:12;4.53;;;4.43;;
7231;SDS011;3657;49.630;11.018;2022-09-12T03:09:48;4.30;;;4.20;;
7231;SDS011;3657;49.630;11.018;2022-09-12T03:12:29;4.50;;;4.40;;
7231;SDS011;3657;49.630;11.018;2022-09-12T03:15:08;4.23;;;4.13;;
7231;SDS011;3657;49.630;11.018;2022-09-12T03:17:43;4.00;;;3.90;;
7231;SDS011;3657;49.630;11.018;2022-09-12T03:20:21;4.33;;;4.23;;
7231;SDS011;3657;49.630;11.018;2022-09-12T03:22:58;4.60;;;4.50;;
7231;SDS011;3657;49.630;11.018;2022-09-12T03:25:29;4.23;;;4.13;;
7231;SDS011;3657;49.630;11.018;2022-09-12T03:28:01;4.10;;;4.00;;
7231;SDS011;3657;49.630;11.018;2022-09-12T03:30:36;4.43;;;4.33;;
7231;SDS011;3657;49.630;11.018;2022-09-12T03:33:09;4.10;;;4.00;;
7231;SDS011;3657;49.630;11.018;2022-09-12T03:35:36;4.33;;;4.23;;
7231;SDS011;3657;49.630;11.018;2022-09-12T03:38:03;4.23;;;4.13;;
7231;SDS011;3657;49.630;11.018;2022-09-12T03:40:32;3.90;;;3.80;;
7231;SDS011;3657;49.630;11.018;2022-09-12T03:42:58;4.43;;;4.33;;
7231;SDS011;3657;49.630;11.018;2022-09-12T03:45:25;4.00;;;3.90;;
7231;SDS011;3657;49.630;11.018;2022-09-12T03:47:52;4.30;;;4.20;;
7231;SDS011;3657;49.630;11.018;2022-09-12T03:50:20;4.10;;;4.00;;
7231;SDS011;3657;49.630;11.018;2022-09-12T03:52:46;3.80;;;3.70;;
7231;SDS011;3657;49.630;11.018;2022-09-12T03:55:13;5.87;;;5.53;;
7231;SDS011;3657;49.630;11.018;2022-09-12T03:57:40;4.10;;;4.00;;
7231;SDS011;3657;49.630;11.018;2022-09-12T04:00:07;4.10;;;4.00;;
7231;SDS011;3657;49.630;11.018;2022-09-12T04:02:35;4.17;;;4.07;;
7231;SDS011;3657;49.630;11.018;2022-09-12T04:05:02;4.10;;;4.00;;
7231;SDS011;3657;49.630;11.018;2022-09-12T04:07:30;4.77;;;4.67;;
7231;SDS011;3657;49.630;11.018;2022-09-12T04:09:57;5.00;;;4.90;;
7231;SDS011;3657;49.630;11.018;2022-09-12T04:12:24;4.47;;;4.37;;
7231;SDS011;3657;49.630;11.018;2022-09-12T04:14:50;4.10;;;4.00;;
7231;SDS011;3657;49.630;11.018;2022-09-12T04:17:17;4.30;;;4.20;;
7231;SDS011;3657;49.630;11.018;2022-09-12T04:19:44;5.20;;;5.10;;
7231;SDS011;3657;49.630;11.018;2022-09-12T04:22:10;4.30;;;4.20;;
7231;SDS011;3657;49.630;11.018;2022-09-12T04:24:38;4.13;;;4.03;;
7231;SDS011;3657;49.630;11.018;2022-09-12T04:27:05;4.47;;;4.37;;
7231;SDS011;3657;49.630;11.018;2022-09-12T04:29:32;4.97;;;4.87;;
7231;SDS011;3657;49.630;11.018;2022-09-12T04:31:59;4.33;;;4.23;;
7231;SDS011;3657;49.630;11.018;2022-09-12T04:34:28;4.30;;;4.20;;
7231;SDS011;3657;49.630;11.018;2022-09-12T04:36:55;4.67;;;4.57;;
7231;SDS011;3657;49.630;11.018;2022-09-12T04:39:22;4.07;;;3.97;;
7231;SDS011;3657;49.630;11.018;2022-09-12T04:41:50;3.90;;;3.80;;
7231;SDS011;3657;49.630;11.018;2022-09-12T04:44:17;4.47;;;4.37;;
7231;SDS011;3657;49.630;11.018;2022-09-12T04:46:45;4.30;;;4.20;;
7231;SDS011;3657;49.630;11.018;2022-09-12T04:49:12;3.73;;;3.63;;
7231;SDS011;3657;49.630;11.018;2022-09-12T04:51:40;4.13;;;4.03;;
7231;SDS011;3657;49.630;11.018;2022-09-12T04:54:10;3.60;;;3.60;;
7231;SDS011;3657;49.630;11.018;2022-09-12T04:56:39;4.10;;;4.00;;
7231;SDS011;3657;49.630;11.018;2022-09-12T04:59:09;4.23;;;4.13;;
7231;SDS011;3657;49.630;11.018;2022-09-12T05:01:36;4.20;;;4.10;;
7231;SDS011;3657;49.630;11.018;2022-09-12T05:04:03;3.90;;;3.80;;
7231;SDS011;3657;49.630;11.018;2022-09-12T05:06:31;4.97;;;4.87;;
7231;SDS011;3657;49.630;11.018;2022-09-12T05:08:59;4.17;;;4.07;;
7231;SDS011;3657;49.630;11.018;2022-09-12T05:11:28;4.67;;;4.57;;
7231;SDS011;3657;49.630;11.018;2022-09-12T05:13:55;4.13;;;4.03;;
7231;SDS011;3657;49.630;11.018;2022-09-12T05:16:24;4.27;;;4.17;;
7231;SDS011;3657;49.630;11.018;2022-09-12T05:18:52;4.00;;;3.90;;
7231;SDS011;3657;49.630;11.018;2022-09-12T05:21:19;4.50;;;4.40;;
7231;SDS011;3657;49.630;11.018;2022-09-12T05:23:49;4.30;;;4.20;;
7231;SDS011;3657;49.630;11.018;2022-09-12T05:26:16;5.07;;;4.70;;
7231;SDS011;3657;49.630;11.018;2022-09-12T05:28:44;4.33;;;4.23;;
7231;SDS011;3657;49.630;11.018;2022-09-12T05:31:13;4.07;;;3.97;;
7231;SDS011;3657;49.630;11.018;2022-09-12T05:33:42;4.30;;;4.20;;
7231;SDS011;3657;49.630;11.018;2022-09-12T05:36:11;4.57;;;4.47;;
7231;SDS011;3657;49.630;11.018;2022-09-12T05:38:39;4.73;;;4.63;;
7231;SDS011;3657;49.630;11.018;2022-09-12T05:41:06;6.10;;;5.90;;
7231;SDS011;3657;49.630;11.018;2022-09-12T05:43:36;4.40;;;4.30;;
7231;SDS011;3657;49.630;11.018;2022-09-12T05:46:05;5.63;;;5.53;;
7231;SDS011;3657;49.630;11.018;2022-09-12T05:48:34;4.80;;;4.70;;
7231;SDS011;3657;49.630;11.018;2022-09-12T05:51:04;4.87;;;4.77;;
7231;SDS011;3657;49.630;11.018;2022-09-12T05:53:34;6.93;;;6.73;;
7231;SDS011;3657;49.630;11.018;2022-09-12T05:56:05;4.90;;;4.80;;
7231;SDS011;3657;49.630;11.018;2022-09-12T05:58:33;4.80;;;4.70;;
7231;SDS011;3657;49.630;11.018;2022-09-12T06:01:01;5.70;;;5.60;;
7231;SDS011;3657;49.630;11.018;2022-09-12T06:03:31;4.63;;;4.53;;
7231;SDS011;3657;49.630;11.018;2022-09-12T06:06:00;5.50;;;5.30;;
7231;SDS011;3657;49.630;11.018;2022-09-12T06:08:29;5.80;;;5.60;;
7231;SDS011;3657;49.630;11.018;2022-09-12T06:10:57;5.13;;;5.03;;
7231;SDS011;3657;49.630;11.018;2022-09-12T06:13:25;5.33;;;5.23;;
7231;SDS011;3657;49.630;11.018;2022-09-12T06:15:51;5.30;;;5.20;;
7231;SDS011;3657;49.630;11.018;2022-09-12T06:18:18;5.00;;;4.90;;
7231;SDS011;3657;49.630;11.018;2022-09-12T06:20:45;5.57;;;5.47;;
7231;SDS011;3657;49.630;11.018;2022-09-12T06:23:13;5.13;;;5.03;;
7231;SDS011;3657;49.630;11.018;2022-09-12T06:25:45;5.57;;;5.37;;
7231;SDS011;3657;49.630;11.018;2022-09-12T06:28:12;5.40;;;5.30;;
7231;SDS011;3657;49.630;11.018;2022-09-12T06:30:39;5.13;;;5.03;;
7231;SDS011;3657;49.630;11.018;2022-09-12T06:33:06;5.70;;;5.50;;
7231;SDS011;3657;49.630;11.018;2022-09-12T06:35:34;5.23;;;5.13;;
7231;SDS011;3657;49.630;11.018;2022-09-12T06:38:01;6.20;;;6.00;;
7231;SDS011;3657;49.630;11.018;2022-09-12T06:40:29;11.60;;;11.10;;
7231;SDS011;3657;49.630;11.018;2022-09-12T06:42:56;5.57;;;5.37;;
7231;SDS011;3657;49.630;11.018;2022-09-12T06:45:22;5.13;;;5.03;;
7231;SDS011;3657;49.630;11.018;2022-09-12T06:47:50;6.40;;;6.20;;
7231;SDS011;3657;49.630;11.018;2022-09-12T06:50:16;5.30;;;5.20;;
7231;SDS011;3657;49.630;11.018;2022-09-12T06:52:43;6.40;;;6.20;;
7231;SDS011;3657;49.630;11.018;2022-09-12T06:55:10;6.10;;;5.90;;
7231;SDS011;3657;49.630;11.018;2022-09-12T06:57:38;6.20;;;6.00;;
7231;SDS011;3657;49.630;11.018;2022-09-12T07:00:05;7.60;;;7.30;;
7231;SDS011;3657;49.630;11.018;2022-09-12T07:02:33;6.40;;;6.20;;
7231;SDS011;3657;49.630;11.018;2022-09-12T07:04:59;5.80;;;5.60;;
7231;SDS011;3657;49.630;11.018;2022-09-12T07:07:26;6.03;;;5.83;;
7231;SDS011;3657;49.630;11.018;2022-09-12T07:09:57;6.60;;;6.40;;
7231;SDS011;3657;49.630;11.018;2022-09-12T07:12:24;6.83;;;6.63;;
7231;SDS011;3657;49.630;11.018;2022-09-12T07:14:54;6.30;;;6.10;;
7231;SDS011;3657;49.630;11.018;2022-09-12T07:17:21;6.23;;;6.03;;
7231;SDS011;3657;49.630;11.018;2022-09-12T07:19:48;6.73;;;6.53;;
7231;SDS011;3657;49.630;11.018;2022-09-12T07:22:15;6.20;;;6.00;;
7231;SDS011;3657;49.630;11.018;2022-09-12T07:24:42;6.67;;;6.47;;
7231;SDS011;3657;49.630;11.018;2022-09-12T07:27:09;11.33;;;10.73;;
7231;SDS011;3657;49.630;11.018;2022-09-12T07:29:37;6.90;;;6.70;;
7231;SDS011;3657;49.630;11.018;2022-09-12T07:32:05;7.90;;;7.60;;
7231;SDS011;3657;49.630;11.018;2022-09-12T07:34:32;6.93;;;6.73;;
7231;SDS011;3657;49.630;11.018;2022-09-12T07:37:00;6.50;;;6.30;;
7231;SDS011;3657;49.630;11.018;2022-09-12T07:39:26;9.03;;;8.73;;
7231;SDS011;3657;49.630;11.018;2022-09-12T07:41:53;6.90;;;6.70;;
7231;SDS011;3657;49.630;11.018;2022-09-12T07:44:20;7.37;;;7.17;;
7231;SDS011;3657;49.630;11.018;2022-09-12T07:46:47;7.73;;;7.53;;
7231;SDS011;3657;49.630;11.018;2022-09-12T07:49:16;7.07;;;6.87;;
7231;SDS011;3657;49.630;11.018;2022-09-12T07:51:42;7.40;;;7.20;;
7231;SDS011;3657;49.630;11.018;2022-09-12T07:54:09;7.40;;;7.20;;
7231;SDS011;3657;49.630;11.018;2022-09-12T07:56:37;7.10;;;6.90;;
7231;SDS011;3657;49.630;11.018;2022-09-12T07:59:04;8.10;;;7.80;;
7231;SDS011;3657;49.630;11.018;2022-09-12T08:01:31;6.90;;;6.70;;
7231;SDS011;3657;49.630;11.018;2022-09-12T08:03:58;7.47;;;7.27;;
7231;SDS011;3657;49.630;11.018;2022-09-12T08:06:27;6.33;;;6.13;;
7231;SDS011;3657;49.630;11.018;2022-09-12T08:08:57;7.17;;;6.97;;
7231;SDS011;3657;49.630;11.018;2022-09-12T08:11:25;7.27;;;7.07;;
7231;SDS011;3657;49.630;11.018;2022-09-12T08:13:52;6.93;;;6.73;;
7231;SDS011;3657;49.630;11.018;2022-09-12T08:16:21;13.87;;;13.17;;
7231;SDS011;3657;49.630;11.018;2022-09-12T08:18:49;7.83;;;7.57;;
7231;SDS011;3657;49.630;11.018;2022-09-12T08:21:17;7.20;;;7.00;;
7231;SDS011;3657;49.630;11.018;2022-09-12T08:23:50;8.37;;;8.07;;
7231;SDS011;3657;49.630;11.018;2022-09-12T08:26:18;8.23;;;7.93;;
7231;SDS011;3657;49.630;11.018;2022-09-12T08:28:44;8.67;;;8.37;;
7231;SDS011;3657;49.630;11.018;2022-09-12T08:31:12;7.30;;;7.10;;
7231;SDS011;3657;49.630;11.018;2022-09-12T08:33:41;8.53;;;8.23;;
7231;SDS011;3657;49.630;11.018;2022-09-12T08:36:09;8.00;;;7.80;;
7231;SDS011;3657;49.630;11.018;2022-09-12T08:38:38;17.27;;;16.17;;
7231;SDS011;3657;49.630;11.018;2022-09-12T08:41:10;8.37;;;8.07;;
7231;SDS011;3657;49.630;11.018;2022-09-12T08:43:50;9.13;;;8.83;;
7231;SDS011;3657;49.630;11.018;2022-09-12T08:46:23;9.60;;;9.30;;
7231;SDS011;3657;49.630;11.018;2022-09-12T08:48:57;9.60;;;9.13;;
7231;SDS011;3657;49.630;11.018;2022-09-12T08:51:27;8.90;;;8.60;;
7231;SDS011;3657;49.630;11.018;2022-09-12T08:53:56;8.50;;;8.20;;
7231;SDS011;3657;49.630;11.018;2022-09-12T08:56:25;8.30;;;8.00;;
7231;SDS011;3657;49.630;11.018;2022-09-12T08:58:54;10.27;;;9.97;;
7231;SDS011;3657;49.630;11.018;2022-09-12T09:01:23;9.90;;;9.50;;
7231;SDS011;3657;49.630;11.018;2022-09-12T09:04:01;10.33;;;9.93;;
7231;SDS011;3657;49.630;11.018;2022-09-12T09:06:45;9.63;;;9.30;;
7231;SDS011;3657;49.630;11.018;2022-09-12T09:09:24;10.07;;;9.77;;
7231;SDS011;3657;49.630;11.018;2022-09-12T09:12:06;8.60;;;8.30;;
7231;SDS011;3657;49.630;11.018;2022-09-12T09:14:48;10.63;;;10.23;;
7231;SDS011;3657;49.630;11.018;2022-09-12T09:17:37;10.40;;;10.00;;
7231;SDS011;3657;49.630;11.018;2022-09-12T09:20:12;8.77;;;8.47;;
7231;SDS011;3657;49.630;11.018;2022-09-12T09:22:45;9.17;;;8.87;;
7231;SDS011;3657;49.630;11.018;2022-09-12T09:25:16;9.50;;;9.20;;
7231;SDS011;3657;49.630;11.018;2022-09-12T09:27:49;14.53;;;13.77;;
7231;SDS011;3657;49.630;11.018;2022-09-12T09:30:22;8.63;;;8.33;;
7231;SDS011;3657;49.630;11.018;2022-09-12T09:32:49;9.60;;;9.30;;
7231;SDS011;3657;49.630;11.018;2022-09-12T09:35:18;9.13;;;8.83;;
7231;SDS011;3657;49.630;11.018;2022-09-12T09:37:57;8.47;;;8.23;;
7231;SDS011;3657;49.630;11.018;2022-09-12T09:40:29;7.50;;;7.30;;
7231;SDS011;3657;49.630;11.018;2022-09-12T09:43:13;8.30;;;8.10;;
7231;SDS011;3657;49.630;11.018;2022-09-12T09:45:46;16.33;;;15.53;;
7231;SDS011;3657;49.630;11.018;2022-09-12T09:48:15;9.13;;;8.83;;
7231;SDS011;3657;49.630;11.018;2022-09-12T09:50:45;12.33;;;11.83;;
7231;SDS011;3657;49.630;11.018;2022-09-12T09:53:19;9.47;;;9.17;;
7231;SDS011;3657;49.630;11.018;2022-09-12T09:55:54;8.60;;;8.33;;
7231;SDS011;3657;49.630;11.018;2022-09-12T09:58:30;8.87;;;8.57;;
7231;SDS011;3657;49.630;11.018;2022-09-12T10:00:58;7.90;;;7.70;;
7231;SDS011;3657;49.630;11.018;2022-09-12T10:03:30;8.53;;;8.23;;
7231;SDS011;3657;49.630;11.018;2022-09-12T10:05:58;8.23;;;7.93;;
7231;SDS011;3657;49.630;11.018;2022-09-12T10:08:27;7.27;;;7.07;;
7231;SDS011;3657;49.630;11.018;2022-09-12T10:10:57;8.00;;;7.80;;
7231;SDS011;3657;49.630;11.018;2022-09-12T10:13:38;7.90;;;7.70;;
7231;SDS011;3657;49.630;11.018;2022-09-12T10:16:16;8.00;;;7.80;;
7231;SDS011;3657;49.630;11.018;2022-09-12T10:18:44;7.67;;;7.47;;
7231;SDS011;3657;49.630;11.018;2022-09-12T10:21:22;7.03;;;6.83;;
7231;SDS011;3657;49.630;11.018;2022-09-12T10:23:57;8.60;;;8.30;;
7231;SDS011;3657;49.630;11.018;2022-09-12T10:26:30;7.57;;;7.37;;
7231;SDS011;3657;49.630;11.018;2022-09-12T10:29:03;8.70;;;8.33;;
7231;SDS011;3657;49.630;11.018;2022-09-12T10:31:42;7.67;;;7.47;;
7231;SDS011;3657;49.630;11.018;2022-09-12T10:34:19;7.40;;;7.20;;
7231;SDS011;3657;49.630;11.018;2022-09-12T10:36:50;7.43;;;7.23;;
7231;SDS011;3657;49.630;11.018;2022-09-12T10:39:20;8.10;;;7.90;;
7231;SDS011;3657;49.630;11.018;2022-09-12T10:41:47;7.77;;;7.57;;
7231;SDS011;3657;49.630;11.018;2022-09-12T10:44:16;6.90;;;6.70;;
7231;SDS011;3657;49.630;11.018;2022-09-12T10:46:50;7.60;;;7.40;;
7231;SDS011;3657;49.630;11.018;2022-09-12T10:49:21;8.50;;;8.30;;
7231;SDS011;3657;49.630;11.018;2022-09-12T10:51:49;8.80;;;8.50;;
7231;SDS011;3657;49.630;11.018;2022-09-12T10:54:18;10.00;;;9.60;;
7231;SDS011;3657;49.630;11.018;2022-09-12T10:56:51;9.10;;;8.80;;
7231;SDS011;3657;49.630;11.018;2022-09-12T10:59:38;9.27;;;8.97;;
7231;SDS011;3657;49.630;11.018;2022-09-12T11:02:20;9.53;;;9.10;;
7231;SDS011;3657;49.630;11.018;2022-09-12T11:04:54;8.07;;;7.87;;
7231;SDS011;3657;49.630;11.018;2022-09-12T11:07:31;8.47;;;8.07;;
7231;SDS011;3657;49.630;11.018;2022-09-12T11:10:08;7.20;;;7.00;;
7231;SDS011;3657;49.630;11.018;2022-09-12T11:12:52;7.40;;;7.20;;
7231;SDS011;3657;49.630;11.018;2022-09-12T11:15:32;7.63;;;7.30;;
7231;SDS011;3657;49.630;11.018;2022-09-12T11:18:13;8.03;;;7.83;;
7231;SDS011;3657;49.630;11.018;2022-09-12T11:23:53;7.73;;;7.53;;
7231;SDS011;3657;49.630;11.018;2022-09-12T11:26:42;7.03;;;6.83;;
7231;SDS011;3657;49.630;11.018;2022-09-12T11:29:18;7.70;;;7.50;;
7231;SDS011;3657;49.630;11.018;2022-09-12T11:31:58;6.53;;;6.33;;
7231;SDS011;3657;49.630;11.018;2022-09-12T11:34:50;7.53;;;7.33;;
7231;SDS011;3657;49.630;11.018;2022-09-12T11:37:32;7.30;;;7.10;;
7231;SDS011;3657;49.630;11.018;2022-09-12T11:40:22;6.53;;;6.33;;
7231;SDS011;3657;49.630;11.018;2022-09-12T11:42:54;6.53;;;6.33;;
7231;SDS011;3657;49.630;11.018;2022-09-12T11:45:27;6.70;;;6.50;;
7231;SDS011;3657;49.630;11.018;2022-09-12T11:47:58;7.63;;;7.43;;
7231;SDS011;3657;49.630;11.018;2022-09-12T11:50:31;6.63;;;6.43;;
7231;SDS011;3657;49.630;11.018;2022-09-12T11:52:59;6.87;;;6.67;;
7231;SDS011;3657;49.630;11.018;2022-09-12T11:55:31;6.97;;;6.77;;
7231;SDS011;3657;49.630;11.018;2022-09-12T11:58:06;7.43;;;7.13;;
7231;SDS011;3657;49.630;11.018;2022-09-12T12:00:35;7.00;;;6.80;;
7231;SDS011;3657;49.630;11.018;2022-09-12T12:03:08;6.67;;;6.37;;
7231;SDS011;3657;49.630;11.018;2022-09-12T12:05:41;6.93;;;6.73;;
7231;SDS011;3657;49.630;11.018;2022-09-12T12:08:14;7.20;;;7.00;;
7231;SDS011;3657;49.630;11.018;2022-09-12T12:10:41;6.57;;;6.37;;
7231;SDS011;3657;49.630;11.018;2022-09-12T12:13:15;6.80;;;6.60;;
7231;SDS011;3657;49.630;11.018;2022-09-12T12:15:45;6.37;;;6.17;;
7231;SDS011;3657;49.630;11.018;2022-09-12T12:18:16;7.17;;;6.97;;
7231;SDS011;3657;49.630;11.018;2022-09-12T12:20:47;6.17;;;5.97;;
7231;SDS011;3657;49.630;11.018;2022-09-12T12:23:24;7.20;;;7.00;;
7231;SDS011;3657;49.630;11.018;2022-09-12T12:25:53;5.97;;;5.77;;
7231;SDS011;3657;49.630;11.018;2022-09-12T12:31:21;6.53;;;6.33;;
7231;SDS011;3657;49.630;11.018;2022-09-12T12:33:53;6.70;;;6.50;;
7231;SDS011;3657;49.630;11.018;2022-09-12T12:48:30;6.97;;;6.70;;
7231;SDS011;3657;49.630;11.018;2022-09-12T12:51:35;5.87;;;5.77;;
7231;SDS011;3657;49.630;11.018;2022-09-12T12:57:27;6.00;;;5.90;;
7231;SDS011;3657;49.630;11.018;2022-09-12T13:00:25;6.27;;;6.07;;
7231;SDS011;3657;49.630;11.018;2022-09-12T13:02:58;6.03;;;5.83;;
7231;SDS011;3657;49.630;11.018;2022-09-12T13:05:27;6.40;;;6.20;;
7231;SDS011;3657;49.630;11.018;2022-09-12T13:07:57;6.47;;;6.27;;
7231;SDS011;3657;49.630;11.018;2022-09-12T13:10:28;6.30;;;6.13;;
7231;SDS011;3657;49.630;11.018;2022-09-12T13:12:56;6.47;;;6.27;;
7231;SDS011;3657;49.630;11.018;2022-09-12T13:18:16;6.70;;;6.50;;
7231;SDS011;3657;49.630;11.018;2022-09-12T13:20:48;6.17;;;5.97;;
7231;SDS011;3657;49.630;11.018;2022-09-12T13:23:24;6.30;;;6.10;;
7231;SDS011;3657;49.630;11.018;2022-09-12T13:25:53;7.10;;;6.90;;
7231;SDS011;3657;49.630;11.018;2022-09-12T13:28:20;6.30;;;6.10;;
7231;SDS011;3657;49.630;11.018;2022-09-12T13:30:53;6.93;;;6.73;;
7231;SDS011;3657;49.630;11.018;2022-09-12T13:33:27;6.33;;;6.03;;
7231;SDS011;3657;49.630;11.018;2022-09-12T13:36:04;5.63;;;5.43;;
7231;SDS011;3657;49.630;11.018;2022-09-12T13:38:43;6.30;;;6.10;;
7231;SDS011;3657;49.630;11.018;2022-09-12T13:41:21;7.23;;;7.03;;
7231;SDS011;3657;49.630;11.018;2022-09-12T13:44:01;6.57;;;6.37;;
7231;SDS011;3657;49.630;11.018;2022-09-12T13:46:29;6.70;;;6.50;;
7231;SDS011;3657;49.630;11.018;2022-09-12T13:48:59;7.20;;;6.90;;
7231;SDS011;3657;49.630;11.018;2022-09-12T13:51:31;6.63;;;6.43;;
7231;SDS011;3657;49.630;11.018;2022-09-12T13:54:01;6.20;;;6.00;;
7231;SDS011;3657;49.630;11.018;2022-09-12T13:56:29;5.97;;;5.87;;
7231;SDS011;3657;49.630;11.018;2022-09-12T13:58:57;6.23;;;6.03;;
7231;SDS011;3657;49.630;11.018;2022-09-12T14:01:36;6.07;;;5.97;;
7231;SDS011;3657;49.630;11.018;2022-09-12T14:04:09;6.40;;;6.20;;
7231;SDS011;3657;49.630;11.018;2022-09-12T14:06:58;7.23;;;6.93;;
7231;SDS011;3657;49.630;11.018;2022-09-12T14:09:29;6.63;;;6.43;;
7231;SDS011;3657;49.630;11.018;2022-09-12T14:11:59;6.90;;;6.70;;
7231;SDS011;3657;49.630;11.018;2022-09-12T14:14:28;7.03;;;6.83;;
7231;SDS011;3657;49.630;11.018;2022-09-12T14:16:58;7.27;;;7.07;;
7231;SDS011;3657;49.630;11.018;2022-09-12T14:19:27;6.90;;;6.70;;
7231;SDS011;3657;49.630;11.018;2022-09-12T14:21:54;6.30;;;6.10;;
7231;SDS011;3657;49.630;11.018;2022-09-12T14:24:22;7.03;;;6.73;;
7231;SDS011;3657;49.630;11.018;2022-09-12T14:26:52;8.17;;;7.40;;
7231;SDS011;3657;49.630;11.018;2022-09-12T14:29:20;6.50;;;6.30;;
7231;SDS011;3657;49.630;11.018;2022-09-12T14:31:59;6.57;;;6.37;;
7231;SDS011;3657;49.630;11.018;2022-09-12T14:34:29;7.07;;;6.87;;
7231;SDS011;3657;49.630;11.018;2022-09-12T14:36:56;6.83;;;6.63;;
7231;SDS011;3657;49.630;11.018;2022-09-12T14:39:25;6.93;;;6.73;;
7231;SDS011;3657;49.630;11.018;2022-09-12T14:42:04;6.43;;;6.23;;
7231;SDS011;3657;49.630;11.018;2022-09-12T14:44:36;8.10;;;7.90;;
7231;SDS011;3657;49.630;11.018;2022-09-12T14:47:10;7.10;;;6.90;;
7231;SDS011;3657;49.630;11.018;2022-09-12T14:49:40;7.80;;;7.60;;
7231;SDS011;3657;49.630;11.018;2022-09-12T14:52:08;6.67;;;6.47;;
7231;SDS011;3657;49.630;11.018;2022-09-12T14:54:54;7.50;;;7.20;;
7231;SDS011;3657;49.630;11.018;2022-09-12T15:00:15;6.60;;;6.40;;
7231;SDS011;3657;49.630;11.018;2022-09-12T15:02:45;6.77;;;6.57;;
7231;SDS011;3657;49.630;11.018;2022-09-12T15:05:17;7.10;;;6.90;;
7231;SDS011;3657;49.630;11.018;2022-09-12T15:07:50;7.30;;;7.10;;
7231;SDS011;3657;49.630;11.018;2022-09-12T15:10:25;7.10;;;6.90;;
7231;SDS011;3657;49.630;11.018;2022-09-12T15:13:12;7.00;;;6.80;;
7231;SDS011;3657;49.630;11.018;2022-09-12T15:15:48;6.80;;;6.60;;
7231;SDS011;3657;49.630;11.018;2022-09-12T15:18:17;6.87;;;6.67;;
7231;SDS011;3657;49.630;11.018;2022-09-12T15:20:45;6.90;;;6.70;;
7231;SDS011;3657;49.630;11.018;2022-09-12T15:23:15;6.83;;;6.60;;
7231;SDS011;3657;49.630;11.018;2022-09-12T15:25:45;7.90;;;7.70;;
7231;SDS011;3657;49.630;11.018;2022-09-12T15:28:16;7.47;;;7.23;;
7231;SDS011;3657;49.630;11.018;2022-09-12T15:30:45;7.07;;;6.87;;
7231;SDS011;3657;49.630;11.018;2022-09-12T15:33:14;7.23;;;7.03;;
7231;SDS011;3657;49.630;11.018;2022-09-12T15:35:41;6.93;;;6.73;;
7231;SDS011;3657;49.630;11.018;2022-09-12T15:38:08;7.20;;;7.00;;
7231;SDS011;3657;49.630;11.018;2022-09-12T15:40:34;7.00;;;6.80;;
7231;SDS011;3657;49.630;11.018;2022-09-12T15:43:01;7.27;;;7.00;;
7231;SDS011;3657;49.630;11.018;2022-09-12T15:45:30;6.83;;;6.63;;
7231;SDS011;3657;49.630;11.018;2022-09-12T15:47:58;7.20;;;7.00;;
7231;SDS011;3657;49.630;11.018;2022-09-12T15:50:26;6.70;;;6.50;;
7231;SDS011;3657;49.630;11.018;2022-09-12T15:52:53;6.93;;;6.73;;
7231;SDS011;3657;49.630;11.018;2022-09-12T15:55:21;6.67;;;6.47;;
7231;SDS011;3657;49.630;11.018;2022-09-12T15:57:49;6.83;;;6.63;;
7231;SDS011;3657;49.630;11.018;2022-09-12T16:00:16;7.10;;;6.90;;